createdAt,value
2018-09-01T00:00:03.893Z,795.01
2018-09-01T00:00:08.198Z,795
2018-09-01T00:00:12.304Z,795.02
2018-09-01T00:00:16.570Z,795.01
2018-09-01T00:00:20.668Z,795.01
2018-09-01T00:00:24.551Z,795.05
2018-09-01T00:00:28.652Z,794.98
2018-09-01T00:00:32.746Z,794.96
2018-09-01T00:00:36.950Z,795.01
2018-09-01T00:00:41.050Z,794.98
2018-09-01T00:00:45.142Z,794.98
2018-09-01T00:00:49.242Z,795.01
2018-09-01T00:00:53.345Z,795.01
2018-09-01T00:00:57.435Z,795.01
2018-09-01T00:01:01.534Z,795.01
2018-09-01T00:01:05.857Z,794.99
2018-09-01T00:01:10.057Z,794.98
2018-09-01T00:01:14.050Z,795.01
2018-09-01T00:01:18.142Z,795
2018-09-01T00:01:22.245Z,795
2018-09-01T00:01:26.449Z,795
2018-09-01T00:01:30.655Z,794.99
2018-09-01T00:01:34.763Z,795.01
2018-09-01T00:01:38.860Z,795.01
2018-09-01T00:01:42.969Z,795.01
2018-09-01T00:01:47.173Z,794.96
2018-09-01T00:01:51.479Z,794.99
2018-09-01T00:01:55.691Z,794.98
2018-09-01T00:01:59.680Z,795.02
2018-09-01T00:02:03.582Z,794.99
2018-09-01T00:02:07.896Z,795
2018-09-01T00:02:12.105Z,795
2018-09-01T00:02:16.305Z,795
2018-09-01T00:02:20.516Z,794.99
2018-09-01T00:02:24.511Z,795
2018-09-01T00:02:28.725Z,794.96
2018-09-01T00:02:32.928Z,794.95
2018-09-01T00:02:37.031Z,794.94
2018-09-01T00:02:41.129Z,795
2018-09-01T00:02:45.334Z,794.97
2018-09-01T00:02:49.431Z,794.95
2018-09-01T00:02:53.630Z,795
2018-09-01T00:02:57.881Z,795
2018-09-01T00:03:01.980Z,795.01
2018-09-01T00:03:06.081Z,794.97
2018-09-01T00:03:10.287Z,794.98
2018-09-01T00:03:14.394Z,794.97
2018-09-01T00:03:18.488Z,794.96
2018-09-01T00:03:22.860Z,794.97
2018-09-01T00:03:27.188Z,794.97
2018-09-01T00:03:31.288Z,794.96
2018-09-01T00:03:35.615Z,794.98
2018-09-01T00:03:39.828Z,794.98
2018-09-01T00:03:44.035Z,794.98
2018-09-01T00:03:48.135Z,794.96
2018-09-01T00:03:52.232Z,794.96
2018-09-01T00:03:56.347Z,794.97
2018-09-01T00:04:00.349Z,794.97
2018-09-01T00:04:04.459Z,794.97
2018-09-01T00:04:08.452Z,794.97
2018-09-01T00:04:12.447Z,794.98
2018-09-01T00:04:16.648Z,794.97
2018-09-01T00:04:20.650Z,795.01
2018-09-01T00:04:24.852Z,794.95
2018-09-01T00:04:28.844Z,794.93
2018-09-01T00:04:33.153Z,794.93
2018-09-01T00:04:37.249Z,794.99
2018-09-01T00:04:41.453Z,794.96
2018-09-01T00:04:45.448Z,794.98
2018-09-01T00:04:49.759Z,794.97
2018-09-01T00:04:53.850Z,794.96
2018-09-01T00:04:57.944Z,794.97
2018-09-01T00:05:02.042Z,794.98
2018-09-01T00:05:05.929Z,794.99
2018-09-01T00:05:10.037Z,794.98
2018-09-01T00:05:14.245Z,795
2018-09-01T00:05:18.560Z,794.96
2018-09-01T00:05:22.458Z,794.98
2018-09-01T00:05:26.449Z,794.98
2018-09-01T00:05:30.659Z,794.96
2018-09-01T00:05:34.756Z,794.97
2018-09-01T00:05:38.958Z,794.95
2018-09-01T00:05:43.271Z,794.96
2018-09-01T00:05:47.367Z,794.97
2018-09-01T00:05:51.470Z,794.97
2018-09-01T00:05:55.462Z,794.99
2018-09-01T00:05:59.581Z,794.96
2018-09-01T00:06:03.687Z,794.99
2018-09-01T00:06:07.898Z,794.96
2018-09-01T00:06:11.998Z,794.98
2018-09-01T00:06:15.986Z,794.95
2018-09-01T00:06:19.984Z,794.95
2018-09-01T00:06:24.193Z,795
2018-09-01T00:06:28.395Z,794.95
2018-09-01T00:06:32.389Z,794.97
2018-09-01T00:06:36.607Z,794.96
2018-09-01T00:06:40.716Z,794.94
2018-09-01T00:06:44.727Z,794.97
2018-09-01T00:06:48.823Z,794.97
2018-09-01T00:06:53.031Z,794.94
2018-09-01T00:06:57.126Z,794.95
2018-09-01T00:07:01.223Z,794.95
2018-09-01T00:07:05.330Z,794.94
2018-09-01T00:07:09.636Z,794.95
2018-09-01T00:07:13.842Z,794.97
2018-09-01T00:07:18.131Z,794.97
2018-09-01T00:07:22.627Z,795.01
2018-09-01T00:07:27.274Z,794.98
2018-09-01T00:07:32.135Z,795
2018-09-01T00:07:36.027Z,794.98
2018-09-01T00:07:40.121Z,795.01
2018-09-01T00:07:44.331Z,795.01
2018-09-01T00:07:48.325Z,795.02
2018-09-01T00:07:52.644Z,795.01
2018-09-01T00:07:56.856Z,795.01
2018-09-01T00:08:00.952Z,794.99
2018-09-01T00:08:05.272Z,794.96
2018-09-01T00:08:09.486Z,795.04
2018-09-01T00:08:13.263Z,795.02
2018-09-01T00:08:17.620Z,795
2018-09-01T00:08:21.927Z,795
2018-09-01T00:08:26.141Z,794.99
2018-09-01T00:08:30.237Z,795
2018-09-01T00:08:34.438Z,794.94
2018-09-01T00:08:38.641Z,795.02
2018-09-01T00:08:42.739Z,794.99
2018-09-01T00:08:46.835Z,795.02
2018-09-01T00:08:51.037Z,794.99
2018-09-01T00:08:55.357Z,795.01
2018-09-01T00:08:59.346Z,795
2018-09-01T00:09:03.332Z,795.01
2018-09-01T00:09:07.431Z,795
2018-09-01T00:09:11.531Z,794.95
2018-09-01T00:09:15.735Z,794.96
2018-09-01T00:09:19.948Z,794.98
2018-09-01T00:09:24.152Z,794.95
2018-09-01T00:09:28.466Z,794.94
2018-09-01T00:09:32.455Z,794.98
2018-09-01T00:09:36.659Z,795.01
2018-09-01T00:09:40.868Z,794.99
2018-09-01T00:09:44.974Z,794.92
2018-09-01T00:09:49.073Z,794.94
2018-09-01T00:09:52.967Z,794.98
2018-09-01T00:09:57.062Z,795
2018-09-01T00:10:01.264Z,794.96
2018-09-01T00:10:05.469Z,795
2018-09-01T00:10:09.678Z,794.97
2018-09-01T00:10:13.991Z,795.01
2018-09-01T00:10:18.089Z,795
2018-09-01T00:10:22.288Z,795.02
2018-09-01T00:10:26.592Z,795.02
2018-09-01T00:10:30.797Z,794.99
2018-09-01T00:10:34.998Z,794.98
2018-09-01T00:10:39.088Z,795
2018-09-01T00:10:43.183Z,794.97
2018-09-01T00:10:47.386Z,794.99
2018-09-01T00:10:51.479Z,794.94
2018-09-01T00:10:55.675Z,794.99
2018-09-01T00:10:59.880Z,794.96
2018-09-01T00:11:04.005Z,794.99
2018-09-01T00:11:08.364Z,794.93
2018-09-01T00:11:12.852Z,794.97
2018-09-01T00:11:17.494Z,794.92
2018-09-01T00:11:22.356Z,794.99
2018-09-01T00:11:26.783Z,794.96
2018-09-01T00:11:30.879Z,794.98
2018-09-01T00:11:35.130Z,794.94
2018-09-01T00:11:39.335Z,794.98
2018-09-01T00:11:43.328Z,794.95
2018-09-01T00:11:47.534Z,794.96
2018-09-01T00:11:51.749Z,794.94
2018-09-01T00:11:55.847Z,794.94
2018-09-01T00:12:00.049Z,794.96
2018-09-01T00:12:04.161Z,794.96
2018-09-01T00:12:08.361Z,794.94
2018-09-01T00:12:12.561Z,794.92
2018-09-01T00:12:16.681Z,794.95
2018-09-01T00:12:20.771Z,794.94
2018-09-01T00:12:24.980Z,794.89
2018-09-01T00:12:29.078Z,794.95
2018-09-01T00:12:33.294Z,794.96
2018-09-01T00:12:37.497Z,794.95
2018-09-01T00:12:41.806Z,794.92
2018-09-01T00:12:45.911Z,794.96
2018-09-01T00:12:50.228Z,794.94
2018-09-01T00:12:54.428Z,794.94
2018-09-01T00:12:58.641Z,794.96
2018-09-01T00:13:02.888Z,794.96
2018-09-01T00:13:06.988Z,794.96
2018-09-01T00:13:11.196Z,794.94
2018-09-01T00:13:15.501Z,794.93
2018-09-01T00:13:19.809Z,794.96
2018-09-01T00:13:24.117Z,794.92
2018-09-01T00:13:28.212Z,794.93
2018-09-01T00:13:32.411Z,794.96
2018-09-01T00:13:36.403Z,794.95
2018-09-01T00:13:40.605Z,794.94
2018-09-01T00:13:44.813Z,794.92
2018-09-01T00:13:49.013Z,794.96
2018-09-01T00:13:53.107Z,794.95
2018-09-01T00:13:57.098Z,794.94
2018-09-01T00:14:01.194Z,794.94
2018-09-01T00:14:05.404Z,794.95
2018-09-01T00:14:09.621Z,794.95
2018-09-01T00:14:13.931Z,794.95
2018-09-01T00:14:18.024Z,794.95
2018-09-01T00:14:22.239Z,794.97
2018-09-01T00:14:26.337Z,794.94
2018-09-01T00:14:30.224Z,794.96
2018-09-01T00:14:34.439Z,794.94
2018-09-01T00:14:38.637Z,794.96
2018-09-01T00:14:42.518Z,794.95
2018-09-01T00:14:46.509Z,794.97
2018-09-01T00:14:50.612Z,794.95
2018-09-01T00:14:54.820Z,794.97
2018-09-01T00:14:59.133Z,794.95
2018-09-01T00:15:03.021Z,794.99
2018-09-01T00:15:07.117Z,794.97
2018-09-01T00:15:11.218Z,794.98
2018-09-01T00:15:15.327Z,794.95
2018-09-01T00:15:19.321Z,794.97
2018-09-01T00:15:23.235Z,794.96
2018-09-01T00:15:27.544Z,794.94
2018-09-01T00:15:31.637Z,794.98
2018-09-01T00:15:35.845Z,794.97
2018-09-01T00:15:39.949Z,795
2018-09-01T00:15:44.274Z,794.98
2018-09-01T00:15:48.263Z,794.98
2018-09-01T00:15:52.349Z,795.01
2018-09-01T00:15:56.664Z,795.02
2018-09-01T00:16:00.893Z,795
2018-09-01T00:16:05.092Z,794.99
2018-09-01T00:16:09.190Z,794.96
2018-09-01T00:16:13.495Z,794.97
2018-09-01T00:16:17.742Z,794.98
2018-09-01T00:16:21.628Z,794.97
2018-09-01T00:16:25.830Z,794.99
2018-09-01T00:16:30.144Z,794.97
2018-09-01T00:16:34.025Z,794.98
2018-09-01T00:16:38.337Z,794.99
2018-09-01T00:16:42.602Z,794.96
2018-09-01T00:16:46.596Z,794.99
2018-09-01T00:16:50.804Z,795
2018-09-01T00:16:54.807Z,794.97
2018-09-01T00:16:59.013Z,794.94
2018-09-01T00:17:03.478Z,795.01
2018-09-01T00:17:07.683Z,795
2018-09-01T00:17:11.782Z,794.99
2018-09-01T00:17:15.996Z,795
2018-09-01T00:17:20.215Z,795
2018-09-01T00:17:24.311Z,794.99
2018-09-01T00:17:28.299Z,794.93
2018-09-01T00:17:32.501Z,794.97
2018-09-01T00:17:36.385Z,794.96
2018-09-01T00:17:40.488Z,794.95
2018-09-01T00:17:44.801Z,794.95
2018-09-01T00:17:49.113Z,794.96
2018-09-01T00:17:53.220Z,794.99
2018-09-01T00:17:57.465Z,794.96
2018-09-01T00:18:01.669Z,794.97
2018-09-01T00:18:05.793Z,794.99
2018-09-01T00:18:10.114Z,794.99
2018-09-01T00:18:14.111Z,795.01
2018-09-01T00:18:18.375Z,794.97
2018-09-01T00:18:22.471Z,795.02
2018-09-01T00:18:26.778Z,795.01
2018-09-01T00:18:30.775Z,795.03
2018-09-01T00:18:34.869Z,795.01
2018-09-01T00:18:38.969Z,795.01
2018-09-01T00:18:43.281Z,795.02
2018-09-01T00:18:47.479Z,795.02
2018-09-01T00:18:51.586Z,795.01
2018-09-01T00:18:55.892Z,795.03
2018-09-01T00:18:59.996Z,795.02
2018-09-01T00:19:04.200Z,795.02
2018-09-01T00:19:08.302Z,795.05
2018-09-01T00:19:12.502Z,795.04
2018-09-01T00:19:16.703Z,795.03
2018-09-01T00:19:20.904Z,795.03
2018-09-01T00:19:24.898Z,795.07
2018-09-01T00:19:28.888Z,795.05
2018-09-01T00:19:33.092Z,795.06
2018-09-01T00:19:37.305Z,795.04
2018-09-01T00:19:41.191Z,795.06
2018-09-01T00:19:45.400Z,795.06
2018-09-01T00:19:49.288Z,795.03
2018-09-01T00:19:53.276Z,795.03
2018-09-01T00:19:57.487Z,795.04
2018-09-01T00:20:01.592Z,795.07
2018-09-01T00:20:05.892Z,795.05
2018-09-01T00:20:10.092Z,795.03
2018-09-01T00:20:14.399Z,795.05
2018-09-01T00:20:18.604Z,795.03
2018-09-01T00:20:22.811Z,795.06
2018-09-01T00:20:27.023Z,795.08
2018-09-01T00:20:31.329Z,795.09
2018-09-01T00:20:35.424Z,795.1
2018-09-01T00:20:39.517Z,795.09
2018-09-01T00:20:43.718Z,795.05
2018-09-01T00:20:47.924Z,795.05
2018-09-01T00:20:52.023Z,795.07
2018-09-01T00:20:56.133Z,795.08
2018-09-01T00:21:00.444Z,795.08
2018-09-01T00:21:04.547Z,795.08
2018-09-01T00:21:08.541Z,795.1
2018-09-01T00:21:12.535Z,795.08
2018-09-01T00:21:16.735Z,795.07
2018-09-01T00:21:20.726Z,795.07
2018-09-01T00:21:25.046Z,795.06
2018-09-01T00:21:29.136Z,795.07
2018-09-01T00:21:33.341Z,795.07
2018-09-01T00:21:37.437Z,795.08
2018-09-01T00:21:41.746Z,795.04
2018-09-01T00:21:45.946Z,795.04
2018-09-01T00:21:50.150Z,795.09
2018-09-01T00:21:54.354Z,795.07
2018-09-01T00:21:58.554Z,795.07
2018-09-01T00:22:02.679Z,795.09
2018-09-01T00:22:06.884Z,795.08
2018-09-01T00:22:11.097Z,795.07
2018-09-01T00:22:15.302Z,795.05
2018-09-01T00:22:19.620Z,795.05
2018-09-01T00:22:23.609Z,795.1
2018-09-01T00:22:27.822Z,795.1
2018-09-01T00:22:32.036Z,795.08
2018-09-01T00:22:36.246Z,795.11
2018-09-01T00:22:40.345Z,795.09
2018-09-01T00:22:44.548Z,795.08
2018-09-01T00:22:48.744Z,795.13
2018-09-01T00:22:52.944Z,795.1
2018-09-01T00:22:57.266Z,795.12
2018-09-01T00:23:01.602Z,795.12
2018-09-01T00:23:05.697Z,795.1
2018-09-01T00:23:09.904Z,795.09
2018-09-01T00:23:14.108Z,795.12
2018-09-01T00:23:18.310Z,795.12
2018-09-01T00:23:22.405Z,795.12
2018-09-01T00:23:26.714Z,795.09
2018-09-01T00:23:30.921Z,795.11
2018-09-01T00:23:35.237Z,795.13
2018-09-01T00:23:39.438Z,795.15
2018-09-01T00:23:43.746Z,795.09
2018-09-01T00:23:47.837Z,795.12
2018-09-01T00:23:52.040Z,795.05
2018-09-01T00:23:56.244Z,795.09
2018-09-01T00:24:00.551Z,795.11
2018-09-01T00:24:04.651Z,795.11
2018-09-01T00:24:08.749Z,795.08
2018-09-01T00:24:12.969Z,795.12
2018-09-01T00:24:17.068Z,795.1
2018-09-01T00:24:21.273Z,795.08
2018-09-01T00:24:25.374Z,795.05
2018-09-01T00:24:29.379Z,795.1
2018-09-01T00:24:33.594Z,795.1
2018-09-01T00:24:37.794Z,795.11
2018-09-01T00:24:41.892Z,795.12
2018-09-01T00:24:45.991Z,795.12
2018-09-01T00:24:50.191Z,795.14
2018-09-01T00:24:54.388Z,795.12
2018-09-01T00:24:58.592Z,795.09
2018-09-01T00:25:02.842Z,795.12
2018-09-01T00:25:06.869Z,795.14
2018-09-01T00:25:11.072Z,795.11
2018-09-01T00:25:15.275Z,795.08
2018-09-01T00:25:19.369Z,795.11
2018-09-01T00:25:23.466Z,795.14
2018-09-01T00:25:27.562Z,795.07
2018-09-01T00:25:31.555Z,795.08
2018-09-01T00:25:35.766Z,795.09
2018-09-01T00:25:39.862Z,795.12
2018-09-01T00:25:44.174Z,795.08
2018-09-01T00:25:48.492Z,795.12
2018-09-01T00:25:52.584Z,795.13
2018-09-01T00:25:56.794Z,795.11
2018-09-01T00:26:01.112Z,795.11
2018-09-01T00:26:05.101Z,795.14
2018-09-01T00:26:09.406Z,795.16
2018-09-01T00:26:13.717Z,795.13
2018-09-01T00:26:17.923Z,795.14
2018-09-01T00:26:22.230Z,795.13
2018-09-01T00:26:26.431Z,795.15
2018-09-01T00:26:30.738Z,795.15
2018-09-01T00:26:34.941Z,795.15
2018-09-01T00:26:39.153Z,795.16
2018-09-01T00:26:43.375Z,795.13
2018-09-01T00:26:47.685Z,795.13
2018-09-01T00:26:51.781Z,795.15
2018-09-01T00:26:55.981Z,795.13
2018-09-01T00:27:00.181Z,795.14
2018-09-01T00:27:04.170Z,795.12
2018-09-01T00:27:08.260Z,795.14
2018-09-01T00:27:12.361Z,795.15
2018-09-01T00:27:16.577Z,795.16
2018-09-01T00:27:20.781Z,795.16
2018-09-01T00:27:25.089Z,795.12
2018-09-01T00:27:29.400Z,795.13
2018-09-01T00:27:33.606Z,795.13
2018-09-01T00:27:37.821Z,795.15
2018-09-01T00:27:42.024Z,795.17
2018-09-01T00:27:46.343Z,795.15
2018-09-01T00:27:50.547Z,795.19
2018-09-01T00:27:54.648Z,795.13
2018-09-01T00:27:58.849Z,795.2
2018-09-01T00:28:02.851Z,795.16
2018-09-01T00:28:06.841Z,795.18
2018-09-01T00:28:10.937Z,795.15
2018-09-01T00:28:15.136Z,795.15
2018-09-01T00:28:19.331Z,795.16
2018-09-01T00:28:23.640Z,795.16
2018-09-01T00:28:27.628Z,795.16
2018-09-01T00:28:31.730Z,795.15
2018-09-01T00:28:36.049Z,795.16
2018-09-01T00:28:40.149Z,795.15
2018-09-01T00:28:44.246Z,795.16
2018-09-01T00:28:48.340Z,795.13
2018-09-01T00:28:52.442Z,795.11
2018-09-01T00:28:56.325Z,795.12
2018-09-01T00:29:00.632Z,795.13
2018-09-01T00:29:04.725Z,795.11
2018-09-01T00:29:08.825Z,795.18
2018-09-01T00:29:13.131Z,795.15
2018-09-01T00:29:17.445Z,795.12
2018-09-01T00:29:21.438Z,795.14
2018-09-01T00:29:25.633Z,795.14
2018-09-01T00:29:29.948Z,795.11
2018-09-01T00:29:33.937Z,795.12
2018-09-01T00:29:38.246Z,795.13
2018-09-01T00:29:42.235Z,795.15
2018-09-01T00:29:46.124Z,795.15
2018-09-01T00:29:50.224Z,795.15
2018-09-01T00:29:54.432Z,795.12
2018-09-01T00:29:58.648Z,795.15
2018-09-01T00:30:02.975Z,795.15
2018-09-01T00:30:07.068Z,795.13
2018-09-01T00:30:11.160Z,795.14
2018-09-01T00:30:15.370Z,795.12
2018-09-01T00:30:19.688Z,795.12
2018-09-01T00:30:23.785Z,795.12
2018-09-01T00:30:28.120Z,795.08
2018-09-01T00:30:32.750Z,795.1
2018-09-01T00:30:37.294Z,795.11
2018-09-01T00:30:42.209Z,795.14
2018-09-01T00:30:47.449Z,795.15
2018-09-01T00:30:51.580Z,795.13
2018-09-01T00:30:55.785Z,795.1
2018-09-01T00:30:59.773Z,795.11
2018-09-01T00:31:04.083Z,795.1
2018-09-01T00:31:08.074Z,795.15
2018-09-01T00:31:12.282Z,795.12
2018-09-01T00:31:16.383Z,795.13
2018-09-01T00:31:20.590Z,795.14
2018-09-01T00:31:24.798Z,795.16
2018-09-01T00:31:28.891Z,795.13
2018-09-01T00:31:32.886Z,795.16
2018-09-01T00:31:37.193Z,795.15
2018-09-01T00:31:41.503Z,795.15
2018-09-01T00:31:45.812Z,795.13
2018-09-01T00:31:49.917Z,795.15
2018-09-01T00:31:54.020Z,795.12
2018-09-01T00:31:58.222Z,795.11
2018-09-01T00:32:02.318Z,795.13
2018-09-01T00:32:06.531Z,795.14
2018-09-01T00:32:10.841Z,795.08
2018-09-01T00:32:15.092Z,795.09
2018-09-01T00:32:19.196Z,795.14
2018-09-01T00:32:23.399Z,795.1
2018-09-01T00:32:27.509Z,795.14
2018-09-01T00:32:31.497Z,795.12
2018-09-01T00:32:35.707Z,795.13
2018-09-01T00:32:40.019Z,795.09
2018-09-01T00:32:44.238Z,795.1
2018-09-01T00:32:48.440Z,795.14
2018-09-01T00:32:52.759Z,795.12
2018-09-01T00:32:57.068Z,795.12
2018-09-01T00:33:01.268Z,795.14
2018-09-01T00:33:05.466Z,795.09
2018-09-01T00:33:09.681Z,795.13
2018-09-01T00:33:13.909Z,795.15
2018-09-01T00:33:18.122Z,795.12
2018-09-01T00:33:22.111Z,795.1
2018-09-01T00:33:26.316Z,795.12
2018-09-01T00:33:30.623Z,795.11
2018-09-01T00:33:34.832Z,795.11
2018-09-01T00:33:39.031Z,795.13
2018-09-01T00:33:43.336Z,795.08
2018-09-01T00:33:47.325Z,795.11
2018-09-01T00:33:51.424Z,795.1
2018-09-01T00:33:55.629Z,795.13
2018-09-01T00:33:59.828Z,795.13
2018-09-01T00:34:04.042Z,795.11
2018-09-01T00:34:08.136Z,795.11
2018-09-01T00:34:12.346Z,795.11
2018-09-01T00:34:16.561Z,795.13
2018-09-01T00:34:20.760Z,795.1
2018-09-01T00:34:24.866Z,795.11
2018-09-01T00:34:29.176Z,795.1
2018-09-01T00:34:33.381Z,795.09
2018-09-01T00:34:37.696Z,795.1
2018-09-01T00:34:41.912Z,795.09
2018-09-01T00:34:46.106Z,795.12
2018-09-01T00:34:50.207Z,795.12
2018-09-01T00:34:54.413Z,795.13
2018-09-01T00:34:58.629Z,795.12
2018-09-01T00:35:02.931Z,795.07
2018-09-01T00:35:07.027Z,795.11
2018-09-01T00:35:11.236Z,795.08
2018-09-01T00:35:15.432Z,795.1
2018-09-01T00:35:19.632Z,795.11
2018-09-01T00:35:23.942Z,795.15
2018-09-01T00:35:27.936Z,795.14
2018-09-01T00:35:32.135Z,795.14
2018-09-01T00:35:36.439Z,795.12
2018-09-01T00:35:40.531Z,795.07
2018-09-01T00:35:44.835Z,795.13
2018-09-01T00:35:49.036Z,795.1
2018-09-01T00:35:53.236Z,795.15
2018-09-01T00:35:57.266Z,795.14
2018-09-01T00:36:01.370Z,795.14
2018-09-01T00:36:05.578Z,795.16
2018-09-01T00:36:09.678Z,795.13
2018-09-01T00:36:13.985Z,795.15
2018-09-01T00:36:18.282Z,795.12
2018-09-01T00:36:22.588Z,795.12
2018-09-01T00:36:26.892Z,795.12
2018-09-01T00:36:31.089Z,795.13
2018-09-01T00:36:35.234Z,795.15
2018-09-01T00:36:39.449Z,795.14
2018-09-01T00:36:43.551Z,795.13
2018-09-01T00:36:47.753Z,795.12
2018-09-01T00:36:52.060Z,795.12
2018-09-01T00:36:56.384Z,795.13
2018-09-01T00:37:00.699Z,795.14
2018-09-01T00:37:05.003Z,795.13
2018-09-01T00:37:09.208Z,795.13
2018-09-01T00:37:13.544Z,795.13
2018-09-01T00:37:18.147Z,795.11
2018-09-01T00:37:22.609Z,795.11
2018-09-01T00:37:27.603Z,795.12
2018-09-01T00:37:32.217Z,795.11
2018-09-01T00:37:36.189Z,795.12
2018-09-01T00:37:40.503Z,795.13
2018-09-01T00:37:44.805Z,795.12
2018-09-01T00:37:48.895Z,795.12
2018-09-01T00:37:53.001Z,795.09
2018-09-01T00:37:57.209Z,795.15
2018-09-01T00:38:01.312Z,795.12
2018-09-01T00:38:05.295Z,795.11
2018-09-01T00:38:09.607Z,795.11
2018-09-01T00:38:13.812Z,795.14
2018-09-01T00:38:18.119Z,795.17
2018-09-01T00:38:22.335Z,795.14
2018-09-01T00:38:26.434Z,795.12
2018-09-01T00:38:30.741Z,795.14
2018-09-01T00:38:35.052Z,795.16
2018-09-01T00:38:39.369Z,795.16
2018-09-01T00:38:43.466Z,795.15
2018-09-01T00:38:47.668Z,795.15
2018-09-01T00:38:51.766Z,795.15
2018-09-01T00:38:55.972Z,795.14
2018-09-01T00:39:00.283Z,795.15
2018-09-01T00:39:04.483Z,795.15
2018-09-01T00:39:08.691Z,795.14
2018-09-01T00:39:13.000Z,795.13
2018-09-01T00:39:17.317Z,795.15
2018-09-01T00:39:21.518Z,795.11
2018-09-01T00:39:25.836Z,795.15
2018-09-01T00:39:30.043Z,795.14
2018-09-01T00:39:34.244Z,795.15
2018-09-01T00:39:38.230Z,795.13
2018-09-01T00:39:42.537Z,795.13
2018-09-01T00:39:46.741Z,795.14
2018-09-01T00:39:50.945Z,795.17
2018-09-01T00:39:55.218Z,795.14
2018-09-01T00:39:59.442Z,795.17
2018-09-01T00:40:03.536Z,795.14
2018-09-01T00:40:07.640Z,795.14
2018-09-01T00:40:11.741Z,795.15
2018-09-01T00:40:16.056Z,795.14
2018-09-01T00:40:20.267Z,795.15
2018-09-01T00:40:24.358Z,795.14
2018-09-01T00:40:28.468Z,795.15
2018-09-01T00:40:32.780Z,795.15
2018-09-01T00:40:37.093Z,795.15
2018-09-01T00:40:41.304Z,795.12
2018-09-01T00:40:45.515Z,795.14
2018-09-01T00:40:49.609Z,795.13
2018-09-01T00:40:53.707Z,795.14
2018-09-01T00:40:57.911Z,795.16
2018-09-01T00:41:02.131Z,795.14
2018-09-01T00:41:06.318Z,795.16
2018-09-01T00:41:10.520Z,795.17
2018-09-01T00:41:14.770Z,795.17
2018-09-01T00:41:18.972Z,795.17
2018-09-01T00:41:23.279Z,795.16
2018-09-01T00:41:27.593Z,795.16
2018-09-01T00:41:31.792Z,795.18
2018-09-01T00:41:36.000Z,795.1
2018-09-01T00:41:40.238Z,795.11
2018-09-01T00:41:44.440Z,795.2
2018-09-01T00:41:48.751Z,795.18
2018-09-01T00:41:52.955Z,795.16
2018-09-01T00:41:57.162Z,795.15
2018-09-01T00:42:01.381Z,795.19
2018-09-01T00:42:05.481Z,795.17
2018-09-01T00:42:09.575Z,795.14
2018-09-01T00:42:13.775Z,795.12
2018-09-01T00:42:18.089Z,795.15
2018-09-01T00:42:22.298Z,795.14
2018-09-01T00:42:26.498Z,795.1
2018-09-01T00:42:30.699Z,795.15
2018-09-01T00:42:34.898Z,795.19
2018-09-01T00:42:39.222Z,795.18
2018-09-01T00:42:43.425Z,795.17
2018-09-01T00:42:47.621Z,795.21
2018-09-01T00:42:51.830Z,795.17
2018-09-01T00:42:55.818Z,795.15
2018-09-01T00:42:59.922Z,795.16
2018-09-01T00:43:04.241Z,795.2
2018-09-01T00:43:08.336Z,795.16
2018-09-01T00:43:12.542Z,795.16
2018-09-01T00:43:16.857Z,795.2
2018-09-01T00:43:20.951Z,795.2
2018-09-01T00:43:25.259Z,795.2
2018-09-01T00:43:29.463Z,795.22
2018-09-01T00:43:33.770Z,795.2
2018-09-01T00:43:38.079Z,795.2
2018-09-01T00:43:42.281Z,795.2
2018-09-01T00:43:46.597Z,795.22
2018-09-01T00:43:50.695Z,795.2
2018-09-01T00:43:54.903Z,795.21
2018-09-01T00:43:59.102Z,795.23
2018-09-01T00:44:03.403Z,795.19
2018-09-01T00:44:07.720Z,795.19
2018-09-01T00:44:11.927Z,795.23
2018-09-01T00:44:16.019Z,795.22
2018-09-01T00:44:20.317Z,795.17
2018-09-01T00:44:24.631Z,795.2
2018-09-01T00:44:28.838Z,795.22
2018-09-01T00:44:33.146Z,795.22
2018-09-01T00:44:37.454Z,795.2
2018-09-01T00:44:41.562Z,795.22
2018-09-01T00:44:45.765Z,795.22
2018-09-01T00:44:49.970Z,795.21
2018-09-01T00:44:54.287Z,795.23
2018-09-01T00:44:58.604Z,795.16
2018-09-01T00:45:02.699Z,795.2
2018-09-01T00:45:06.920Z,795.19
2018-09-01T00:45:11.227Z,795.25
2018-09-01T00:45:15.456Z,795.2
2018-09-01T00:45:19.547Z,795.15
2018-09-01T00:45:23.638Z,795.17
2018-09-01T00:45:27.945Z,795.22
2018-09-01T00:45:32.150Z,795.22
2018-09-01T00:45:36.459Z,795.21
2018-09-01T00:45:40.764Z,795.25
2018-09-01T00:45:44.651Z,795.25
2018-09-01T00:45:48.878Z,795.19
2018-09-01T00:45:52.967Z,795.2
2018-09-01T00:45:57.165Z,795.17
2018-09-01T00:46:01.475Z,795.18
2018-09-01T00:46:05.570Z,795.24
2018-09-01T00:46:09.554Z,795.23
2018-09-01T00:46:13.765Z,795.24
2018-09-01T00:46:18.072Z,795.27
2018-09-01T00:46:22.270Z,795.22
2018-09-01T00:46:26.473Z,795.25
2018-09-01T00:46:30.564Z,795.25
2018-09-01T00:46:34.779Z,795.21
2018-09-01T00:46:38.878Z,795.2
2018-09-01T00:46:42.974Z,795.26
2018-09-01T00:46:47.076Z,795.21
2018-09-01T00:46:51.285Z,795.22
2018-09-01T00:46:55.172Z,795.24
2018-09-01T00:46:59.473Z,795.17
2018-09-01T00:47:03.666Z,795.24
2018-09-01T00:47:07.878Z,795.21
2018-09-01T00:47:12.187Z,795.24
2018-09-01T00:47:16.382Z,795.22
2018-09-01T00:47:20.477Z,795.17
2018-09-01T00:47:24.683Z,795.2
2018-09-01T00:47:28.881Z,795.2
2018-09-01T00:47:33.187Z,795.23
2018-09-01T00:47:37.286Z,795.25
2018-09-01T00:47:41.382Z,795.24
2018-09-01T00:47:45.685Z,795.15
2018-09-01T00:47:50.002Z,795.24
2018-09-01T00:47:54.203Z,795.22
2018-09-01T00:47:58.300Z,795.24
2018-09-01T00:48:02.541Z,795.23
2018-09-01T00:48:06.852Z,795.2
2018-09-01T00:48:11.162Z,795.24
2018-09-01T00:48:15.465Z,795.24
2018-09-01T00:48:19.557Z,795.16
2018-09-01T00:48:23.651Z,795.19
2018-09-01T00:48:27.849Z,795.2
2018-09-01T00:48:32.051Z,795.21
2018-09-01T00:48:36.355Z,795.23
2018-09-01T00:48:40.446Z,795.26
2018-09-01T00:48:44.757Z,795.16
2018-09-01T00:48:48.958Z,795.16
2018-09-01T00:48:53.158Z,795.17
2018-09-01T00:48:57.357Z,795.17
2018-09-01T00:49:01.567Z,795.19
2018-09-01T00:49:05.777Z,795.24
2018-09-01T00:49:10.083Z,795.2
2018-09-01T00:49:14.179Z,795.19
2018-09-01T00:49:18.378Z,795.17
2018-09-01T00:49:22.477Z,795.16
2018-09-01T00:49:26.571Z,795.2
2018-09-01T00:49:30.668Z,795.18
2018-09-01T00:49:34.865Z,795.16
2018-09-01T00:49:39.173Z,795.13
2018-09-01T00:49:43.274Z,795.18
2018-09-01T00:49:47.468Z,795.2
2018-09-01T00:49:51.612Z,795.21
2018-09-01T00:49:55.706Z,795.18
2018-09-01T00:49:59.699Z,795.18
2018-09-01T00:50:03.755Z,795.18
2018-09-01T00:50:07.955Z,795.18
2018-09-01T00:50:12.156Z,795.2
2018-09-01T00:50:16.249Z,795.19
2018-09-01T00:50:20.448Z,795.22
2018-09-01T00:50:24.755Z,795.19
2018-09-01T00:50:28.955Z,795.19
2018-09-01T00:50:33.150Z,795.16
2018-09-01T00:50:37.258Z,795.21
2018-09-01T00:50:41.568Z,795.19
2018-09-01T00:50:45.776Z,795.2
2018-09-01T00:50:49.969Z,795.17
2018-09-01T00:50:54.165Z,795.16
2018-09-01T00:50:58.378Z,795.16
2018-09-01T00:51:02.479Z,795.12
2018-09-01T00:51:06.569Z,795.13
2018-09-01T00:51:10.770Z,795.13
2018-09-01T00:51:14.867Z,795.15
2018-09-01T00:51:19.174Z,795.17
2018-09-01T00:51:23.477Z,795.18
2018-09-01T00:51:27.676Z,795.17
2018-09-01T00:51:31.885Z,795.18
2018-09-01T00:51:36.095Z,795.17
2018-09-01T00:51:40.402Z,795.17
2018-09-01T00:51:44.723Z,795.16
2018-09-01T00:51:49.025Z,795.15
2018-09-01T00:51:53.222Z,795.14
2018-09-01T00:51:57.100Z,795.2
2018-09-01T00:52:01.409Z,795.18
2018-09-01T00:52:05.398Z,795.2
2018-09-01T00:52:09.597Z,795.15
2018-09-01T00:52:13.912Z,795.19
2018-09-01T00:52:18.112Z,795.19
2018-09-01T00:52:22.415Z,795.18
2018-09-01T00:52:26.651Z,795.2
2018-09-01T00:52:30.950Z,795.17